Time;durP1;ratioP1;P1;durP2;ratioP2;P2;SDS_P1;SDS_P2;PMS_P1;PMS_P2;Temp;Humidity;BMP_temperature;BMP_pressure;BME280_temperature;BME280_humidity;BME280_pressure;Samples;Min_cycle;Max_cycle;Signal;HPM_P1;HPM_P2
2023/05/20 00:01:58;;;;;;;11.38;5.57;;;10.80;99.90;;;;;;4941055;28;20053;-60
2023/05/20 00:04:24;;;;;;;13.63;5.15;;;10.70;99.90;;;;;;4958013;28;20038;-60
2023/05/20 00:06:50;;;;;;;14.63;5.53;;;10.70;99.90;;;;;;4968301;28;20603;-60
2023/05/20 00:09:16;;;;;;;12.73;5.60;;;10.70;99.90;;;;;;4978499;28;20054;-60
2023/05/20 00:11:42;;;;;;;16.52;6.00;;;10.70;99.90;;;;;;4976507;28;20050;-60
2023/05/20 00:14:07;;;;;;;14.27;5.50;;;10.70;99.90;;;;;;4957600;28;20100;-60
2023/05/20 00:16:33;;;;;;;18.85;5.82;;;10.70;99.90;;;;;;4938344;28;20055;-60
2023/05/20 00:18:59;;;;;;;17.73;6.20;;;10.70;99.90;;;;;;4963426;28;20042;-61
2023/05/20 00:21:25;;;;;;;11.23;5.60;;;10.70;99.90;;;;;;4962578;28;20046;-61
2023/05/20 00:23:51;;;;;;;18.58;6.60;;;10.70;99.90;;;;;;4959527;28;20126;-60
2023/05/20 00:26:16;;;;;;;11.98;5.88;;;10.60;99.90;;;;;;4976308;28;20093;-60
2023/05/20 00:28:42;;;;;;;15.68;5.88;;;10.60;99.90;;;;;;4979162;28;20436;-60
2023/05/20 00:31:08;;;;;;;18.17;6.03;;;10.60;99.90;;;;;;4957806;28;20145;-60
2023/05/20 00:33:35;;;;;;;11.80;5.88;;;10.60;99.90;;;;;;4981029;28;20579;-61
2023/05/20 00:36:01;;;;;;;13.70;5.57;;;10.60;99.90;;;;;;4983213;28;20059;-60
2023/05/20 00:38:26;;;;;;;15.52;6.53;;;10.60;99.90;;;;;;4980136;28;20136;-60
2023/05/20 00:40:52;;;;;;;17.48;6.60;;;10.60;99.90;;;;;;4964324;28;20065;-60
2023/05/20 00:43:19;;;;;;;17.33;5.70;;;10.50;99.90;;;;;;4979555;28;20074;-60
2023/05/20 00:45:46;;;;;;;17.13;6.13;;;10.50;99.90;;;;;;4978088;28;20046;-60
2023/05/20 00:48:12;;;;;;;15.48;7.25;;;10.50;99.90;;;;;;4967440;28;20149;-60
2023/05/20 00:50:39;;;;;;;18.25;6.00;;;10.50;99.90;;;;;;4979939;28;20401;-60
2023/05/20 00:53:05;;;;;;;18.95;6.45;;;10.50;99.90;;;;;;4979921;28;20053;-61
2023/05/20 00:55:31;;;;;;;15.30;6.40;;;10.50;99.90;;;;;;4960196;28;20093;-59
2023/05/20 00:57:58;;;;;;;13.55;6.20;;;10.40;99.90;;;;;;4966273;28;20953;-61
2023/05/20 01:00:23;;;;;;;13.15;5.53;;;10.50;99.90;;;;;;4981084;28;20129;-59
2023/05/20 01:02:49;;;;;;;14.25;6.45;;;10.40;99.90;;;;;;4965399;28;20057;-60
2023/05/20 01:05:16;;;;;;;14.70;5.97;;;10.40;99.90;;;;;;4945200;28;20129;-61
2023/05/20 01:07:42;;;;;;;13.32;6.60;;;10.40;99.90;;;;;;4958249;28;20054;-61
2023/05/20 01:10:09;;;;;;;14.13;6.30;;;10.40;99.90;;;;;;4964604;28;20062;-61
2023/05/20 01:12:41;;;;;;;15.98;6.13;;;10.40;99.90;;;;;;4981876;28;20128;-61
2023/05/20 01:15:14;;;;;;;16.77;6.43;;;10.30;99.90;;;;;;4959859;28;20046;-61
2023/05/20 01:17:45;;;;;;;13.27;6.70;;;10.30;99.90;;;;;;4958352;28;20535;-61
2023/05/20 01:20:13;;;;;;;13.85;6.22;;;10.30;99.90;;;;;;4962795;28;20039;-61
2023/05/20 01:22:53;;;;;;;15.20;6.15;;;10.30;99.90;;;;;;4965272;28;20045;-61
2023/05/20 01:25:18;;;;;;;17.58;6.22;;;10.30;99.90;;;;;;4962351;28;20069;-61
2023/05/20 01:27:45;;;;;;;12.60;6.13;;;10.30;99.90;;;;;;4971177;28;20181;-61
2023/05/20 01:30:12;;;;;;;14.40;6.65;;;10.20;99.90;;;;;;4963500;28;20053;-61
2023/05/20 01:32:42;;;;;;;14.43;6.78;;;10.20;99.90;;;;;;4976439;28;20039;-61
2023/05/20 01:35:09;;;;;;;12.45;6.25;;;10.20;99.90;;;;;;4958358;28;20050;-61
2023/05/20 01:37:40;;;;;;;12.77;6.50;;;10.20;99.90;;;;;;4957952;28;20050;-61
2023/05/20 01:40:11;;;;;;;14.68;6.47;;;10.10;99.90;;;;;;4975483;28;20072;-61
2023/05/20 01:42:38;;;;;;;17.58;6.57;;;10.10;99.90;;;;;;4956766;28;20141;-61
2023/05/20 01:45:05;;;;;;;11.55;6.40;;;10.10;99.90;;;;;;4936136;28;20137;-61
2023/05/20 01:47:30;;;;;;;13.20;6.28;;;10.10;99.90;;;;;;4978946;28;20034;-61
2023/05/20 01:49:56;;;;;;;11.75;6.97;;;10.10;99.90;;;;;;4957779;28;20046;-61
2023/05/20 01:52:22;;;;;;;14.90;6.47;;;10.10;99.90;;;;;;4947758;28;20038;-61
2023/05/20 01:54:50;;;;;;;14.98;7.20;;;10.00;99.90;;;;;;4960147;28;20054;-61
2023/05/20 01:57:22;;;;;;;13.70;6.20;;;10.00;99.90;;;;;;4973674;28;20050;-61
2023/05/20 01:59:48;;;;;;;;;;;10.00;99.90;;;;;;4956794;28;20046;-61
2023/05/20 02:02:15;;;;;;;10.65;5.88;;;10.00;99.90;;;;;;4973315;28;19917;-61
2023/05/20 02:04:46;;;;;;;14.70;6.30;;;9.90;99.90;;;;;;4972531;28;20042;-61
2023/05/20 02:07:13;;;;;;;9.52;5.88;;;10.00;99.90;;;;;;4976504;28;20665;-62
2023/05/20 02:09:39;;;;;;;11.45;6.22;;;10.00;99.90;;;;;;4976720;28;20070;-61
2023/05/20 02:12:06;;;;;;;10.48;6.78;;;9.90;99.90;;;;;;4945362;28;20050;-61
2023/05/20 02:14:32;;;;;;;13.95;6.45;;;9.90;99.90;;;;;;4958651;28;20042;-61
2023/05/20 02:16:57;;;;;;;13.68;7.22;;;9.90;99.90;;;;;;4982124;28;20046;-61
2023/05/20 02:19:23;;;;;;;10.10;6.55;;;9.90;99.90;;;;;;4961169;28;20783;-61
2023/05/20 02:21:49;;;;;;;13.40;7.22;;;9.80;99.90;;;;;;4957429;28;20070;-61
2023/05/20 02:24:15;;;;;;;12.55;6.25;;;9.80;99.90;;;;;;4958976;28;20077;-61
2023/05/20 02:26:43;;;;;;;10.65;6.35;;;9.80;99.90;;;;;;4977410;28;20424;-61
2023/05/20 02:29:09;;;;;;;17.25;6.25;;;9.80;99.90;;;;;;4951159;28;20471;-61
2023/05/20 02:31:34;;;;;;;10.55;5.80;;;9.80;99.90;;;;;;4972398;28;20117;-61
2023/05/20 02:34:00;;;;;;;13.20;6.22;;;9.80;99.90;;;;;;4936078;28;20038;-61
2023/05/20 02:36:26;;;;;;;13.05;6.13;;;9.80;99.90;;;;;;4961184;28;20096;-61
2023/05/20 02:38:55;;;;;;;16.88;6.47;;;9.80;99.90;;;;;;4972959;28;20038;-61
2023/05/20 02:41:21;;;;;;;10.80;6.40;;;9.70;99.90;;;;;;4959383;28;20050;-61
2023/05/20 02:43:47;;;;;;;10.98;6.25;;;9.70;99.90;;;;;;4974681;28;20050;-61
2023/05/20 02:46:14;;;;;;;13.73;6.00;;;9.70;99.90;;;;;;4957457;28;20049;-61
2023/05/20 02:48:40;;;;;;;13.25;6.15;;;9.70;99.90;;;;;;4958777;28;20096;-61
2023/05/20 02:51:06;;;;;;;9.57;5.72;;;9.70;99.90;;;;;;4957333;28;20176;-61
2023/05/20 02:53:32;;;;;;;9.60;6.13;;;9.70;99.90;;;;;;4975548;28;20041;-61
2023/05/20 02:55:58;;;;;;;11.20;6.38;;;9.70;99.90;;;;;;4975654;28;20089;-61
2023/05/20 02:58:25;;;;;;;10.07;6.28;;;9.70;99.90;;;;;;4960246;28;20057;-61
2023/05/20 03:00:51;;;;;;;14.07;5.72;;;9.60;99.90;;;;;;4955544;28;20539;-61
2023/05/20 03:03:17;;;;;;;12.88;5.75;;;9.60;99.90;;;;;;4958122;28;20042;-61
2023/05/20 03:05:44;;;;;;;10.38;5.43;;;9.60;99.90;;;;;;4955056;28;20097;-61
2023/05/20 03:08:11;;;;;;;15.60;6.00;;;9.60;99.90;;;;;;4959888;28;20548;-61
2023/05/20 03:10:38;;;;;;;11.45;5.57;;;9.60;99.90;;;;;;4977386;28;20054;-61
2023/05/20 03:13:08;;;;;;;13.07;5.65;;;9.60;99.90;;;;;;4975724;28;20057;-61
2023/05/20 03:15:35;;;;;;;12.27;5.50;;;9.70;99.90;;;;;;4974893;28;20492;-61
2023/05/20 03:18:01;;;;;;;10.02;5.38;;;9.60;99.90;;;;;;4956407;28;20050;-61
2023/05/20 03:20:31;;;;;;;11.05;5.22;;;9.60;99.90;;;;;;4956541;28;20122;-61
2023/05/20 03:22:57;;;;;;;9.35;5.82;;;9.70;99.90;;;;;;4976033;28;20072;-61
2023/05/20 03:25:25;;;;;;;8.10;5.07;;;9.60;99.90;;;;;;4976784;28;20497;-61
2023/05/20 03:27:50;;;;;;;9.55;5.03;;;9.60;99.90;;;;;;4976174;28;20046;-61
2023/05/20 03:30:16;;;;;;;8.77;4.50;;;9.60;99.90;;;;;;4956173;28;20054;-61
2023/05/20 03:32:42;;;;;;;10.07;5.35;;;9.60;99.90;;;;;;4973355;28;20092;-61
2023/05/20 03:35:08;;;;;;;11.18;4.60;;;9.60;99.90;;;;;;4946650;28;20184;-61
2023/05/20 03:37:35;;;;;;;10.93;4.60;;;9.60;99.90;;;;;;4957828;28;20086;-61
2023/05/20 03:40:04;;;;;;;7.68;4.20;;;9.60;99.90;;;;;;4959787;28;20042;-61
2023/05/20 03:42:31;;;;;;;9.25;4.68;;;9.50;99.90;;;;;;4946950;28;20047;-61
2023/05/20 03:44:59;;;;;;;9.35;4.63;;;9.60;99.90;;;;;;4955626;28;20363;-61
2023/05/20 03:47:25;;;;;;;10.73;4.07;;;9.50;99.90;;;;;;4973694;28;21038;-61
2023/05/20 03:49:51;;;;;;;7.88;3.72;;;9.50;99.90;;;;;;4941797;28;20129;-61
2023/05/20 03:52:17;;;;;;;5.25;3.80;;;9.50;99.90;;;;;;4946003;28;20042;-61
2023/05/20 03:54:42;;;;;;;6.88;3.90;;;9.60;99.90;;;;;;4974025;28;20030;-61
2023/05/20 03:57:09;;;;;;;10.18;4.18;;;9.60;99.90;;;;;;4968541;28;20761;-62
2023/05/20 03:59:35;;;;;;;8.18;3.78;;;9.60;99.90;;;;;;4955952;28;20493;-61
2023/05/20 04:02:02;;;;;;;12.00;3.75;;;9.60;99.90;;;;;;4942984;28;20218;-61
2023/05/20 04:04:31;;;;;;;8.82;3.85;;;9.60;99.90;;;;;;4971322;28;20129;-61
2023/05/20 04:06:59;;;;;;;12.82;3.92;;;9.70;99.90;;;;;;4956382;28;20050;-61
2023/05/20 04:09:25;;;;;;;9.70;3.72;;;9.70;99.90;;;;;;4956175;28;20078;-61
2023/05/20 04:11:51;;;;;;;7.55;3.30;;;9.70;99.90;;;;;;4973083;28;20054;-61
2023/05/20 04:14:18;;;;;;;9.55;3.45;;;9.80;99.90;;;;;;4970378;28;20030;-61
2023/05/20 04:16:44;;;;;;;4.15;3.28;;;9.80;99.90;;;;;;4970629;28;20070;-61
2023/05/20 04:19:11;;;;;;;6.20;3.35;;;9.90;99.90;;;;;;4971049;28;20050;-61
2023/05/20 04:21:37;;;;;;;8.45;3.72;;;9.90;99.90;;;;;;4963625;28;20155;-61
2023/05/20 04:24:03;;;;;;;6.80;3.15;;;9.90;99.90;;;;;;4948115;28;20054;-61
2023/05/20 04:26:29;;;;;;;5.40;2.97;;;10.00;99.90;;;;;;4968920;28;20066;-61
2023/05/20 04:28:57;;;;;;;6.63;2.78;;;10.00;99.90;;;;;;4953845;28;20060;-61
2023/05/20 04:31:25;;;;;;;6.00;2.90;;;10.10;99.90;;;;;;4968947;28;20053;-61
2023/05/20 04:33:52;;;;;;;4.32;2.85;;;10.10;99.90;;;;;;4974432;28;20054;-61
2023/05/20 04:36:18;;;;;;;4.07;2.60;;;10.20;99.90;;;;;;4940979;28;20034;-61
2023/05/20 04:38:44;;;;;;;8.18;2.88;;;10.30;99.90;;;;;;4973760;28;20047;-61
2023/05/20 04:41:10;;;;;;;4.53;2.60;;;10.30;99.90;;;;;;4941510;28;22275;-61
2023/05/20 04:43:37;;;;;;;4.70;2.55;;;10.40;99.90;;;;;;4965306;28;20200;-61
2023/05/20 04:46:06;;;;;;;6.15;2.40;;;10.40;99.90;;;;;;4945445;28;20061;-61
2023/05/20 04:48:32;;;;;;;8.85;2.80;;;10.50;99.90;;;;;;4970158;28;20050;-61
2023/05/20 04:50:58;;;;;;;5.30;3.00;;;10.50;99.90;;;;;;4956431;28;20035;-61
2023/05/20 04:53:24;;;;;;;5.60;2.40;;;10.60;99.90;;;;;;4971291;28;20168;-61
2023/05/20 04:55:53;;;;;;;4.72;2.30;;;10.60;99.90;;;;;;4971601;28;20054;-61
2023/05/20 04:58:23;;;;;;;8.02;2.47;;;10.70;99.90;;;;;;4951430;28;20137;-61
2023/05/20 05:00:50;;;;;;;3.17;2.17;;;10.60;99.90;;;;;;4950025;28;20108;-61
2023/05/20 05:03:16;;;;;;;5.35;2.33;;;10.70;99.90;;;;;;4970884;28;20042;-61
2023/05/20 05:05:42;;;;;;;3.90;2.25;;;10.70;99.90;;;;;;4968662;28;20041;-61
2023/05/20 05:08:10;;;;;;;4.07;2.17;;;10.70;99.90;;;;;;4964021;28;20492;-61
2023/05/20 05:10:36;;;;;;;5.63;2.60;;;10.70;99.90;;;;;;4974564;28;20064;-61
2023/05/20 05:13:02;;;;;;;4.95;2.33;;;10.70;99.90;;;;;;4956850;28;20131;-61
2023/05/20 05:15:28;;;;;;;6.13;2.30;;;10.80;99.90;;;;;;4954919;28;20129;-61
2023/05/20 05:17:54;;;;;;;2.83;1.90;;;10.80;99.90;;;;;;4944649;28;21178;-61
2023/05/20 05:20:20;;;;;;;3.08;1.90;;;10.90;99.90;;;;;;4969124;28;20088;-61
2023/05/20 05:22:46;;;;;;;3.50;2.20;;;10.90;99.90;;;;;;4976824;28;20117;-61
2023/05/20 05:25:12;;;;;;;4.50;2.10;;;10.90;99.90;;;;;;4961285;28;20046;-61
2023/05/20 05:27:38;;;;;;;5.90;1.90;;;11.00;99.90;;;;;;4961435;28;20046;-61
2023/05/20 05:30:06;;;;;;;9.25;2.00;;;11.00;99.90;;;;;;4961634;28;20141;-61
2023/05/20 05:32:32;;;;;;;5.38;2.00;;;11.10;99.90;;;;;;4974609;28;20046;-61
2023/05/20 05:34:58;;;;;;;4.55;2.00;;;11.20;99.90;;;;;;4959430;28;20547;-61
2023/05/20 05:37:23;;;;;;;3.80;2.00;;;11.30;99.90;;;;;;4955202;28;20134;-61
2023/05/20 05:39:49;;;;;;;2.92;1.80;;;11.40;99.90;;;;;;4977452;28;20448;-61
2023/05/20 05:42:15;;;;;;;7.80;2.00;;;11.60;99.90;;;;;;4945315;28;20473;-61
2023/05/20 05:44:41;;;;;;;10.77;1.65;;;11.70;99.90;;;;;;4958727;28;20048;-61
2023/05/20 05:47:06;;;;;;;4.68;1.95;;;11.70;99.90;;;;;;4945164;28;20138;-62
2023/05/20 05:49:33;;;;;;;3.67;1.90;;;11.80;99.90;;;;;;4954782;28;20061;-61
2023/05/20 05:51:58;;;;;;;3.22;1.70;;;11.90;99.90;;;;;;4970631;28;20497;-61
2023/05/20 05:54:24;;;;;;;3.22;1.60;;;11.90;99.90;;;;;;4959563;28;20050;-61
2023/05/20 05:56:51;;;;;;;5.22;1.70;;;12.00;99.90;;;;;;4944006;28;20051;-61
2023/05/20 05:59:16;;;;;;;7.15;1.92;;;12.00;99.90;;;;;;4956336;28;20038;-61
2023/05/20 06:01:42;;;;;;;5.70;1.90;;;12.00;99.90;;;;;;4974508;28;20047;-60
2023/05/20 06:04:08;;;;;;;3.97;1.63;;;12.10;99.90;;;;;;4956375;28;20365;-60
2023/05/20 06:06:34;;;;;;;3.63;1.88;;;12.10;99.90;;;;;;4953136;28;20042;-59
2023/05/20 06:09:00;;;;;;;6.63;1.75;;;12.10;99.90;;;;;;4982999;28;20061;-60
2023/05/20 06:11:26;;;;;;;9.13;1.90;;;12.20;99.90;;;;;;4985012;28;20058;-60
2023/05/20 06:13:51;;;;;;;4.18;1.55;;;12.20;99.90;;;;;;4947733;28;20046;-58
2023/05/20 06:16:17;;;;;;;3.88;1.60;;;12.20;99.90;;;;;;4951140;28;20073;-60
2023/05/20 06:18:45;;;;;;;2.92;1.65;;;12.30;99.90;;;;;;4961835;28;20563;-60
2023/05/20 06:21:10;;;;;;;3.47;1.92;;;12.30;99.90;;;;;;4963487;28;20104;-58
2023/05/20 06:23:36;;;;;;;4.03;1.48;;;12.30;99.90;;;;;;4981567;28;20613;-60
2023/05/20 06:26:02;;;;;;;4.40;1.85;;;12.40;99.90;;;;;;4977906;28;20929;-59
2023/05/20 06:28:29;;;;;;;3.58;1.70;;;12.40;99.90;;;;;;4950476;28;20050;-60
2023/05/20 06:30:55;;;;;;;4.00;1.80;;;12.50;99.90;;;;;;4977004;28;20578;-58
2023/05/20 06:33:25;;;;;;;2.63;1.52;;;12.60;99.90;;;;;;4962785;28;20047;-60
2023/05/20 06:35:52;;;;;;;3.72;1.50;;;12.70;99.90;;;;;;4981314;28;20042;-59
2023/05/20 06:38:18;;;;;;;5.30;1.70;;;12.80;99.90;;;;;;4977618;28;20042;-59
2023/05/20 06:40:44;;;;;;;7.25;1.60;;;12.90;99.90;;;;;;4961114;28;20164;-60
2023/05/20 06:43:10;;;;;;;3.45;1.55;;;12.90;99.90;;;;;;4983672;28;20142;-59
2023/05/20 06:45:36;;;;;;;2.35;1.63;;;13.00;99.90;;;;;;4967973;28;20058;-61
2023/05/20 06:48:01;;;;;;;4.13;1.85;;;13.10;99.90;;;;;;4986925;28;20050;-60
2023/05/20 06:50:27;;;;;;;3.55;1.73;;;13.10;99.90;;;;;;4962417;28;20451;-60
2023/05/20 06:52:53;;;;;;;3.75;1.80;;;13.30;99.90;;;;;;4963964;28;20039;-58
2023/05/20 06:55:19;;;;;;;2.70;1.50;;;13.40;99.90;;;;;;4968727;28;20093;-58
2023/05/20 06:57:45;;;;;;;4.32;1.75;;;13.40;99.90;;;;;;4967252;28;20096;-58
2023/05/20 07:00:12;;;;;;;3.78;1.55;;;13.50;99.90;;;;;;4965706;28;20413;-59
2023/05/20 07:02:38;;;;;;;3.08;1.65;;;13.60;99.90;;;;;;4977000;28;20050;-58
2023/05/20 07:05:05;;;;;;;2.90;1.67;;;13.70;99.90;;;;;;4974467;28;20054;-59
2023/05/20 07:07:31;;;;;;;2.17;1.70;;;13.70;99.90;;;;;;4963759;28;20519;-59
2023/05/20 07:09:57;;;;;;;3.75;1.70;;;13.80;99.90;;;;;;4978293;28;21702;-58
2023/05/20 07:12:23;;;;;;;4.43;2.00;;;13.80;99.90;;;;;;4949883;28;20378;-58
2023/05/20 07:14:49;;;;;;;3.55;1.60;;;13.90;99.90;;;;;;4983806;28;20049;-59
2023/05/20 07:17:15;;;;;;;6.18;1.73;;;14.00;99.90;;;;;;4981179;28;20046;-58
2023/05/20 07:19:41;;;;;;;3.30;1.45;;;14.10;99.90;;;;;;4985094;28;20034;-58
2023/05/20 07:22:07;;;;;;;5.75;1.67;;;14.20;99.90;;;;;;4982908;28;20049;-59
2023/05/20 07:24:33;;;;;;;4.85;1.40;;;14.20;99.90;;;;;;4984898;28;20054;-58
2023/05/20 07:26:59;;;;;;;4.72;1.60;;;14.30;99.90;;;;;;4979550;28;20064;-59
2023/05/20 07:29:25;;;;;;;3.17;1.60;;;14.40;99.90;;;;;;4953258;28;20042;-58
2023/05/20 07:31:51;;;;;;;3.20;1.67;;;14.50;99.90;;;;;;4982044;28;20042;-58
2023/05/20 07:34:16;;;;;;;5.05;1.70;;;14.60;99.90;;;;;;4988517;28;20042;-58
2023/05/20 07:36:43;;;;;;;3.42;1.70;;;14.70;99.90;;;;;;4986075;28;20042;-59
2023/05/20 07:39:09;;;;;;;8.65;1.85;;;14.80;99.90;;;;;;4986327;28;20042;-59
2023/05/20 07:41:36;;;;;;;7.07;1.65;;;14.90;99.90;;;;;;4966958;28;20038;-59
2023/05/20 07:44:03;;;;;;;4.78;1.63;;;15.00;99.90;;;;;;4961635;28;20043;-60
2023/05/20 07:46:30;;;;;;;2.63;1.65;;;15.10;99.90;;;;;;4943168;28;20059;-60
2023/05/20 07:48:56;;;;;;;3.75;1.90;;;15.20;99.90;;;;;;4975234;28;20042;-60
2023/05/20 07:51:22;;;;;;;4.93;1.70;;;15.30;99.90;;;;;;4959685;28;20050;-60
2023/05/20 07:53:48;;;;;;;2.13;1.55;;;15.30;99.90;;;;;;4978323;28;20030;-59
2023/05/20 07:56:14;;;;;;;3.15;1.77;;;15.40;99.90;;;;;;4975448;28;20509;-59
2023/05/20 07:58:41;;;;;;;2.40;1.80;;;15.50;99.90;;;;;;4976600;28;20065;-59
2023/05/20 08:01:08;;;;;;;2.13;1.48;;;15.60;99.90;;;;;;4976554;28;20057;-60
2023/05/20 08:03:35;;;;;;;5.85;1.90;;;15.60;99.90;;;;;;4976842;28;20045;-60
2023/05/20 08:06:02;;;;;;;5.60;1.70;;;15.70;99.90;;;;;;4965103;28;20477;-59
2023/05/20 08:08:29;;;;;;;5.25;1.70;;;15.80;99.90;;;;;;4986098;28;20062;-59
2023/05/20 08:10:55;;;;;;;5.28;1.60;;;15.90;99.90;;;;;;4982768;28;20156;-60
2023/05/20 08:13:21;;;;;;;3.45;1.55;;;15.90;99.80;;;;;;4976625;28;20089;-60
2023/05/20 08:15:47;;;;;;;4.03;1.88;;;16.00;99.50;;;;;;4974674;28;20120;-61
2023/05/20 08:18:14;;;;;;;4.50;1.38;;;16.10;99.40;;;;;;4962417;28;20057;-59
2023/05/20 08:20:43;;;;;;;5.35;1.70;;;16.20;99.20;;;;;;4958388;28;20512;-60
2023/05/20 08:23:09;;;;;;;4.30;1.70;;;16.30;99.40;;;;;;4976384;28;20090;-59
2023/05/20 08:25:35;;;;;;;2.25;1.70;;;16.40;99.60;;;;;;4970253;28;20436;-60
2023/05/20 08:28:05;;;;;;;4.32;1.70;;;16.50;98.90;;;;;;4975471;28;20108;-59
2023/05/20 08:30:32;;;;;;;3.97;1.63;;;16.50;98.60;;;;;;4976238;28;20511;-60
2023/05/20 08:32:59;;;;;;;4.55;1.52;;;16.60;98.40;;;;;;4974523;28;20420;-59
2023/05/20 08:35:25;;;;;;;3.70;1.70;;;16.70;98.20;;;;;;4972496;28;20030;-59
2023/05/20 08:37:54;;;;;;;8.30;1.50;;;16.70;97.70;;;;;;4970386;28;20057;-60
2023/05/20 08:40:20;;;;;;;5.65;1.42;;;16.80;97.80;;;;;;4975867;28;20133;-60
2023/05/20 08:42:51;;;;;;;5.70;1.70;;;16.90;97.70;;;;;;4956122;28;20046;-62
2023/05/20 08:45:26;;;;;;;4.47;1.55;;;17.00;97.50;;;;;;4964311;28;20054;-63
2023/05/20 08:47:52;;;;;;;10.05;1.65;;;17.10;97.30;;;;;;4950126;28;20603;-63
2023/05/20 08:50:18;;;;;;;4.47;1.63;;;17.10;97.00;;;;;;4954956;28;20058;-62
2023/05/20 08:52:46;;;;;;;3.65;1.27;;;17.20;96.90;;;;;;4959132;28;20057;-62
2023/05/20 08:55:23;;;;;;;5.18;1.50;;;17.30;97.10;;;;;;4978751;28;20046;-64
2023/05/20 08:57:53;;;;;;;3.40;1.63;;;17.40;97.00;;;;;;4969379;28;20693;-61
2023/05/20 09:00:22;;;;;;;4.50;1.70;;;17.50;96.80;;;;;;4976108;28;20068;-63
2023/05/20 09:02:48;;;;;;;3.55;1.50;;;17.60;96.60;;;;;;4968292;28;20077;-62
2023/05/20 09:05:14;;;;;;;3.33;1.40;;;17.70;96.60;;;;;;4965795;28;20175;-62
2023/05/20 09:07:42;;;;;;;4.72;1.50;;;17.70;96.10;;;;;;4957507;28;20129;-63
2023/05/20 09:10:08;;;;;;;5.68;1.50;;;17.70;95.60;;;;;;4972905;28;20090;-62
2023/05/20 09:12:34;;;;;;;11.30;2.20;;;17.80;95.40;;;;;;4974167;28;20050;-63
2023/05/20 09:15:00;;;;;;;1.92;1.60;;;17.90;95.00;;;;;;4958878;28;20054;-63
2023/05/20 09:17:26;;;;;;;4.93;1.65;;;18.00;94.90;;;;;;4958699;28;20046;-62
2023/05/20 09:19:53;;;;;;;3.65;1.75;;;18.10;94.70;;;;;;4966642;28;20035;-65
2023/05/20 09:22:26;;;;;;;3.95;1.38;;;18.20;94.20;;;;;;4958290;28;20370;-64
2023/05/20 09:24:52;;;;;;;7.93;1.83;;;18.30;94.60;;;;;;4953108;28;20049;-61
2023/05/20 09:53:03;;;;;;;7.00;2.72;;;18.70;92.40;;;;;;5044015;28;20784;-58
2023/05/20 09:55:29;;;;;;;5.05;1.63;;;19.30;92.30;;;;;;5045094;28;20053;-58
2023/05/20 09:57:56;;;;;;;10.77;1.98;;;19.40;92.30;;;;;;5046052;28;20040;-59
2023/05/20 10:00:21;;;;;;;9.95;1.85;;;19.40;92.80;;;;;;5067963;28;20059;-59
2023/05/20 10:02:50;;;;;;;6.18;2.00;;;19.50;92.80;;;;;;5045500;28;20033;-59
2023/05/20 10:05:38;;;;;;;5.50;2.08;;;19.50;92.70;;;;;;5047570;28;20049;-59
2023/05/20 10:08:38;;;;;;;7.07;2.17;;;19.50;91.90;;;;;;5047518;28;20095;-58
2023/05/20 10:11:47;;;;;;;5.88;2.00;;;19.40;92.00;;;;;;5042834;28;20042;-59
2023/05/20 10:14:36;;;;;;;7.45;2.05;;;19.40;91.80;;;;;;5046108;28;22541;-58
2023/05/20 10:17:16;;;;;;;5.63;2.28;;;19.40;91.60;;;;;;5080183;28;20099;-58
2023/05/20 10:19:42;;;;;;;3.58;1.90;;;19.50;92.10;;;;;;5046528;28;20120;-57
2023/05/20 10:22:09;;;;;;;6.20;2.00;;;19.60;92.00;;;;;;5042951;28;20045;-58
2023/05/20 10:24:39;;;;;;;6.53;1.95;;;19.60;91.40;;;;;;5047669;28;20040;-57
2023/05/20 10:27:14;;;;;;;7.35;2.20;;;19.60;91.50;;;;;;5029571;28;20052;-58
2023/05/20 10:29:49;;;;;;;3.53;1.92;;;19.70;91.30;;;;;;5040958;28;20037;-58
2023/05/20 10:32:25;;;;;;;8.50;2.17;;;19.80;91.40;;;;;;5035589;28;20045;-58
2023/05/20 10:34:51;;;;;;;6.53;2.30;;;19.70;91.10;;;;;;5023333;28;20120;-58
2023/05/20 10:37:38;;;;;;;10.00;2.40;;;19.70;91.60;;;;;;5032917;28;20045;-57
2023/05/20 10:40:12;;;;;;;8.57;2.55;;;19.60;91.50;;;;;;5041581;28;22040;-58
2023/05/20 10:42:38;;;;;;;10.30;2.40;;;19.70;92.30;;;;;;5042399;28;20464;-58
2023/05/20 10:45:06;;;;;;;4.47;2.17;;;19.80;91.80;;;;;;5036266;28;21039;-58
2023/05/20 10:47:33;;;;;;;6.80;2.30;;;19.80;91.70;;;;;;5043308;28;20032;-57
2023/05/20 10:50:00;;;;;;;6.68;2.30;;;19.70;91.40;;;;;;5052874;28;20523;-58
2023/05/20 10:52:26;;;;;;;4.45;2.20;;;19.60;91.10;;;;;;5035797;28;20101;-58
2023/05/20 10:54:52;;;;;;;6.05;2.60;;;19.60;91.30;;;;;;5035238;28;20412;-59
2023/05/20 10:57:18;;;;;;;6.32;2.30;;;19.80;91.90;;;;;;5027246;28;21958;-58
2023/05/20 10:59:44;;;;;;;4.63;2.25;;;19.80;92.00;;;;;;5036617;28;20128;-58
2023/05/20 11:02:12;;;;;;;6.30;2.75;;;19.70;91.90;;;;;;5019877;28;20056;-59
2023/05/20 11:04:38;;;;;;;6.68;2.15;;;19.60;92.00;;;;;;5018010;28;20808;-58
2023/05/20 11:07:04;;;;;;;6.97;2.40;;;19.70;92.80;;;;;;5009047;28;20037;-58
2023/05/20 11:09:30;;;;;;;5.95;2.50;;;19.70;92.80;;;;;;5015305;28;20079;-57
2023/05/20 11:11:57;;;;;;;6.40;2.15;;;19.80;92.90;;;;;;5027940;28;20056;-58
2023/05/20 11:14:23;;;;;;;10.75;2.45;;;20.00;93.20;;;;;;5032080;28;20128;-57
2023/05/20 11:16:53;;;;;;;9.43;3.15;;;20.20;93.90;;;;;;5026516;28;20037;-58
2023/05/20 11:19:19;;;;;;;8.52;2.75;;;20.30;94.30;;;;;;5035710;28;20377;-58
2023/05/20 11:21:45;;;;;;;7.15;2.50;;;20.50;94.00;;;;;;5021226;28;20044;-58
2023/05/20 11:24:11;;;;;;;6.82;2.80;;;20.60;93.30;;;;;;5031358;28;20045;-58
2023/05/20 11:26:38;;;;;;;7.75;2.65;;;20.70;93.00;;;;;;5035319;28;20116;-58
2023/05/20 11:29:03;;;;;;;5.30;2.40;;;20.70;93.20;;;;;;5039315;28;20045;-59
2023/05/20 11:31:30;;;;;;;11.40;2.53;;;20.60;92.60;;;;;;5038662;28;20037;-60
2023/05/20 11:34:00;;;;;;;6.50;2.33;;;20.50;92.80;;;;;;5017845;28;20124;-61
2023/05/20 11:36:27;;;;;;;6.03;2.70;;;20.60;93.10;;;;;;5033505;28;20563;-61
2023/05/20 11:38:55;;;;;;;10.95;2.83;;;20.70;93.10;;;;;;5043538;28;20076;-59
2023/05/20 11:41:25;;;;;;;9.32;2.67;;;20.80;93.20;;;;;;5040113;28;20055;-60
2023/05/20 11:43:59;;;;;;;5.32;2.45;;;20.90;92.20;;;;;;5033237;28;20102;-59
2023/05/20 11:46:25;;;;;;;8.60;2.55;;;21.00;92.80;;;;;;5037379;28;20070;-60
2023/05/20 11:48:54;;;;;;;7.65;2.65;;;20.80;92.40;;;;;;5037961;28;20115;-59
2023/05/20 11:51:27;;;;;;;10.23;2.83;;;20.60;92.10;;;;;;5030638;28;20423;-61
2023/05/20 11:54:01;;;;;;;9.88;3.00;;;20.40;91.90;;;;;;5034259;28;20511;-59
2023/05/20 11:56:37;;;;;;;13.00;3.28;;;20.20;92.10;;;;;;5048462;28;20068;-59
2023/05/20 11:59:04;;;;;;;10.60;2.85;;;20.00;92.80;;;;;;5036437;28;20057;-60
2023/05/20 12:01:41;;;;;;;8.50;2.90;;;20.10;93.60;;;;;;5036273;28;20076;-60
2023/05/20 12:04:09;;;;;;;5.38;2.53;;;20.20;93.50;;;;;;5030733;28;20717;-61
2023/05/20 12:06:38;;;;;;;7.15;3.03;;;20.30;93.80;;;;;;5016865;28;20049;-60
2023/05/20 12:09:05;;;;;;;6.82;3.50;;;20.50;94.10;;;;;;5034776;28;20045;-60
2023/05/20 12:11:36;;;;;;;9.07;3.15;;;20.80;94.20;;;;;;5020492;28;20497;-60
2023/05/20 12:14:05;;;;;;;12.48;3.20;;;21.10;93.20;;;;;;5031222;28;20295;-62
2023/05/20 12:16:32;;;;;;;9.07;3.15;;;21.20;91.60;;;;;;5008072;28;20551;-60
2023/05/20 12:18:58;;;;;;;6.95;3.67;;;21.30;91.80;;;;;;5029909;28;20253;-60
2023/05/20 12:21:24;;;;;;;7.78;3.03;;;21.20;91.10;;;;;;5029580;28;20049;-60
2023/05/20 12:23:56;;;;;;;9.93;3.08;;;21.30;91.00;;;;;;5030091;28;20208;-59
2023/05/20 12:26:25;;;;;;;6.10;3.28;;;21.30;91.20;;;;;;5042517;28;20631;-60
2023/05/20 12:28:52;;;;;;;6.80;3.28;;;21.10;90.90;;;;;;5047914;28;20079;-60
2023/05/20 12:31:18;;;;;;;7.50;3.10;;;21.20;91.40;;;;;;5028594;28;20421;-60
2023/05/20 12:33:43;;;;;;;12.13;3.20;;;21.00;90.90;;;;;;5027827;28;20059;-60
2023/05/20 12:36:09;;;;;;;6.60;2.88;;;21.00;91.00;;;;;;5022756;28;20044;-62
2023/05/20 12:38:35;;;;;;;4.68;2.60;;;20.90;91.20;;;;;;5019024;28;20041;-62
2023/05/20 12:41:01;;;;;;;5.45;3.05;;;21.00;91.60;;;;;;5015679;28;20053;-60
2023/05/20 12:43:27;;;;;;;10.60;2.85;;;21.30;91.80;;;;;;5028058;28;20110;-59
2023/05/20 12:45:53;;;;;;;11.15;3.30;;;21.50;91.00;;;;;;5027886;28;20076;-60
2023/05/20 12:48:19;;;;;;;7.05;2.83;;;21.60;90.10;;;;;;5027876;28;20056;-59
2023/05/20 12:50:45;;;;;;;9.30;3.55;;;21.50;89.50;;;;;;5031322;28;20064;-61
2023/05/20 12:53:10;;;;;;;10.90;3.30;;;21.60;90.20;;;;;;5022925;28;20048;-60
2023/05/20 12:55:37;;;;;;;6.57;3.00;;;21.80;90.20;;;;;;5031136;28;20080;-61
2023/05/20 12:58:03;;;;;;;5.95;3.20;;;21.90;88.90;;;;;;5036011;28;20061;-61
2023/05/20 13:00:28;;;;;;;5.43;3.03;;;22.00;88.30;;;;;;5013336;28;20079;-60
2023/05/20 13:02:54;;;;;;;6.63;3.03;;;22.10;87.50;;;;;;5028110;28;20029;-60
2023/05/20 13:05:21;;;;;;;8.38;2.83;;;22.20;86.40;;;;;;5035804;28;20083;-60
2023/05/20 13:07:47;;;;;;;6.93;3.40;;;22.30;88.40;;;;;;5029508;28;20044;-62
2023/05/20 13:10:13;;;;;;;7.38;3.33;;;22.40;86.30;;;;;;5031953;28;20118;-62
2023/05/20 13:12:44;;;;;;;12.57;3.50;;;22.10;83.60;;;;;;5030846;28;20052;-60